WetterOnline ( https://www.wetteronline.de )

Wetter aktuell Sonthofen

Aktuelles Wetter: Oberstdorf (812m)

6-stündlich | Neueste Meldungen
Ortszeit Temperatur Wetter
Do, 07.07. 2:00 12.5° C wolkig
Mi, 06.07. 20:00 21.1° C leicht bewölkt
Mi, 06.07. 14:00 22.2° C fast wolkenlos
Mi, 06.07. 8:00 13.9° C fast wolkenlos
Mi, 06.07. 2:00 14.2° C bedeckt
Di, 05.07. 20:00 20.5° C wolkenlos
Di, 05.07. 14:00 19.8° C bewölkt
Di, 05.07. 8:00 14.5° C Sprühregen
Ortszeit Temperatur Wetter
Do, 07.07. 6:30 11.7° C bewölkt
Do, 07.07. 6:20 11.7° C bewölkt
Do, 07.07. 6:10 11.6° C bedeckt
Do, 07.07. 6:00 11.3° C bedeckt
Do, 07.07. 5:50 11.3° C bedeckt
Do, 07.07. 5:40 11.4° C bedeckt
Do, 07.07. 5:30 11.3° C bewölkt
Do, 07.07. 5:00 11.0° C bewölkt
Do, 07.07. 4:30 11.8° C bewölkt
Do, 07.07. 4:00 12.0° C bewölkt
Do, 07.07. 3:30 11.8° C bewölkt
Ortszeit Relative Feuchte Sichtweite
Do, 07.07. 2:00 88% 45 km
Mi, 06.07. 20:00 46% 55 km
Mi, 06.07. 14:00 55% 50 km
Mi, 06.07. 8:00 82% 55 km
Mi, 06.07. 2:00 82% >70 km
Di, 05.07. 20:00 61% >70 km
Di, 05.07. 14:00 69% 60 km
Di, 05.07. 8:00 95% 40 km
Ortszeit Relative Feuchte Sichtweite
Do, 07.07. 6:30 95% 17 km
Do, 07.07. 6:20 95% -
Do, 07.07. 6:10 95% -
Do, 07.07. 6:00 95% 13 km
Do, 07.07. 5:50 95% -
Do, 07.07. 5:40 95% -
Do, 07.07. 5:30 95% 26 km
Do, 07.07. 5:00 95% 14 km
Do, 07.07. 4:30 91% 35 km
Do, 07.07. 4:00 92% 35 km
Do, 07.07. 3:30 94% 30 km
Ortszeit Niederschlagsmenge Niederschlagsart
Do, 07.07. 2:00 0.0 l/m2 in 6 Std. -
Mi, 06.07. 20:00 0.0 l/m2 in 12 Std. -
Mi, 06.07. 14:00 0.0 l/m2 in 6 Std. -
Mi, 06.07. 8:00 1 l/m2 in 12 Std. -
Mi, 06.07. 2:00 1 l/m2 in 6 Std. Regen
Di, 05.07. 20:00 16 l/m2 in 12 Std. -
Di, 05.07. 14:00 16 l/m2 in 6 Std. Regen
Di, 05.07. 8:00 9 l/m2 in 12 Std. Regen
Ortszeit Niederschlagsmenge Niederschlagsart
Do, 07.07. 6:30 0.0 l/m2 in 1 Std. -
Do, 07.07. 6:20 keine Meldung -
Do, 07.07. 6:10 keine Meldung -
Do, 07.07. 6:00 0.0 l/m2 in 1 Std. -
Do, 07.07. 5:50 keine Meldung -
Do, 07.07. 5:40 keine Meldung -
Do, 07.07. 5:30 0.0 l/m2 in 1 Std. -
Do, 07.07. 5:00 0.0 l/m2 in 1 Std. -
Do, 07.07. 4:30 0.0 l/m2 in 1 Std. -
Do, 07.07. 4:00 0.0 l/m2 in 1 Std. -
Do, 07.07. 3:30 0.0 l/m2 in 1 Std. -
Ortszeit Stärke Spitze Richtung
km/h Bft. km/h Grad Sektor
Do, 07.07. 2:00 7 2 18 150° SO
Mi, 06.07. 20:00 14 3 25 310° NW
Mi, 06.07. 14:00 14 3 25 20° N
Mi, 06.07. 8:00 2 1 28 110° O
Mi, 06.07. 2:00 17 3 33 160° S
Di, 05.07. 20:00 9 2 13 290° W
Di, 05.07. 14:00 4 1 14 260° W
Di, 05.07. 8:00 11 2 19 150° SO
Ortszeit Stärke Spitze Richtung
km/h Bft. km/h Grad Sektor
Do, 07.07. 6:30 6 1 9 160° S
Do, 07.07. 6:20 6 1 - 160° S
Do, 07.07. 6:10 6 1 - 170° S
Do, 07.07. 6:00 2 1 7 320° NW
Do, 07.07. 5:50 2 1 - 320° NW
Do, 07.07. 5:40 4 1 - 230° SW
Do, 07.07. 5:30 7 2 7 150° SO
Do, 07.07. 5:00 2 1 13 220° SW
Do, 07.07. 4:30 4 1 14 130° SO
Do, 07.07. 4:00 9 2 13 180° S
Do, 07.07. 3:30 7 2 11 170° S
Ortszeit Untergrenze Bedeckung Gattung
total tief tief mittel hoch
Do, 07.07. 2:00 1380 m 5/8 5/8 - - -
Mi, 06.07. 20:00 9000 m 3/8 0/8 - - -
Mi, 06.07. 14:00 2100 m 1/8 1/8 - - -
Mi, 06.07. 8:00 1500 m 1/8 1/8 - - -
Mi, 06.07. 2:00 1410 m 8/8 8/8 - - -
Di, 05.07. 20:00 - 0/8 0/8 - - -
Di, 05.07. 14:00 1800 m 8/8 6/8 - - -
Di, 05.07. 8:00 360 m 8/8 8/8 - - -
Ortszeit Bedeckungsgrad in Achtel und Wolkenuntergrenze
Do, 07.07. 6:30 1(810m) 5(1500m) 8(5700m)
Do, 07.07. 6:20 1(810m) 5(1500m) 8(5700m)
Do, 07.07. 6:10 8
Do, 07.07. 6:00 1(810m) 8(1800m) 8(4500m)
Do, 07.07. 5:50 1(810m) 8(1800m) 8(4500m)
Do, 07.07. 5:40 8
Do, 07.07. 5:30 3(1500m) 7(1800m) 7(6000m)
Do, 07.07. 5:00 7(1500m) 7(6300m)
Do, 07.07. 4:30 7(1800m)
Do, 07.07. 4:00 3(900m) 5(1500m) 7(1800m)
Do, 07.07. 3:30 7(1500m)
Ortszeit Stationsdruck (hPa) Tendenz (hPa in 3 Std.)
Do, 07.07. 2:00 931 0,0
Mi, 06.07. 20:00 929 - 0,2
Mi, 06.07. 14:00 930 - 0,2
Mi, 06.07. 8:00 931 + 0,1
Mi, 06.07. 2:00 931 + 1,1
Di, 05.07. 20:00 929 - 0,4
Di, 05.07. 14:00 930 - 0,1
Di, 05.07. 8:00 929 + 0,7
Ortszeit Stationsdruck (hPa) Tendenz (hPa in 3 Std.)
Do, 07.07. 6:30 930 - 0,4
Do, 07.07. 6:20 930 keine Meldung
Do, 07.07. 6:10 930 keine Meldung
Do, 07.07. 6:00 930 - 0,5
Do, 07.07. 5:50 930 keine Meldung
Do, 07.07. 5:40 930 keine Meldung
Do, 07.07. 5:30 930 - 0,5
Do, 07.07. 5:00 930 - 0,7
Do, 07.07. 4:30 930 - 0,8
Do, 07.07. 4:00 930 - 0,9
Do, 07.07. 3:30 930 - 0,8
Ortszeit Schneehöhe (cm)
Do, 07.07. 2:00 0
Mi, 06.07. 20:00 0
Mi, 06.07. 14:00 0
Mi, 06.07. 8:00 0
Mi, 06.07. 2:00 0
Di, 05.07. 20:00 0
Di, 05.07. 14:00 0
Di, 05.07. 8:00 0
Ortszeit Schneehöhe (cm)
Do, 07.07. 6:30 0
Do, 07.07. 6:20 0
Do, 07.07. 6:10 0
Do, 07.07. 6:00 0
Do, 07.07. 5:50 0
Do, 07.07. 5:40 0
Do, 07.07. 5:30 0
Do, 07.07. 5:00 0
Do, 07.07. 4:30 0
Do, 07.07. 4:00 0
Do, 07.07. 3:30 0
Link zu dieser Seite / Seite empfehlen

Das Wetter in ...